Mac Andrew Mckinney — WDF8971 — position and weather

sailwx.info

Track history (hours):
 
Tides and Currents Weather Stations Pressure Air Temp Water Temp Dewpoint Dewpoint Depression Visibility Wind Speed Wind Dir Waves Ship Positions

Mac Andrew Mckinney

Owner: McKinney Marine, Inc, Baton Rouge, LA. More information available from US FCC via Universal Licensing System and Coast Guard Vessel Documentation Center.

Last reported at 2018-Feb-20 10:59 UTC. Time now 2018-Feb-20 11:19 UTC.
Position N 30°04' W 093°33'.

Length 21 m; draft 3 m.

Type: Tug. MMSI: 367500460.

Date/timePositionNaut miles runAvg speedWind from/ knotsBaromVisibWave heightAir tempDewpointWater temp
2018-Feb-20 10:59N 30°04' W 093°33'2 5.2
2018-Feb-20 10:30N 30°04' W 093°30'2 4.9
2018-Feb-20 10:00N 30°04' W 093°28'2 4.9
2018-Feb-20 09:30N 30°04' W 093°25'2 4.6
2018-Feb-20 09:00N 30°04' W 093°22'2 3.2
2018-Feb-20 08:30N 30°04' W 093°20'2 3.6
2018-Feb-20 07:50N 30°06' W 093°18'1 4.1
2018-Feb-20 07:30N 30°05' W 093°17'1 1.9
2018-Feb-20 07:00N 30°04' W 093°16'2 3.1
2018-Feb-20 06:30N 30°03' W 093°16'2 4.8
2018-Feb-20 06:00N 30°01' W 093°14'2 3.7
2018-Feb-20 05:30N 29°60' W 093°13'3 5.1
2018-Feb-20 05:00N 29°58' W 093°11'2 4.9
2018-Feb-20 04:30N 29°56' W 093°09'3 5.2
2018-Feb-20 04:00N 29°56' W 093°06'3 5.1
2018-Feb-20 03:30N 29°56' W 093°03'36 4.8
2018-Feb-19 19:52N 29°51' W 092°21'2 5.0
2018-Feb-19 19:29N 29°50' W 092°19'2 4.6
2018-Feb-19 19:00N 29°49' W 092°17'3 5.3
2018-Feb-19 18:30N 29°48' W 092°15'2 4.1
2018-Feb-19 17:59N 29°47' W 092°12'2 3.7
2018-Feb-19 17:30N 29°47' W 092°10'2 4.9
2018-Feb-19 17:00N 29°47' W 092°08'3 5.2
2018-Feb-19 16:30N 29°48' W 092°05'2 4.9
2018-Feb-19 16:00N 29°49' W 092°02'3 5.1
2018-Feb-19 15:30N 29°50' W 091°60'  
2018-Feb-16 12:22N 29°50' W 091°59'2 4.4
2018-Feb-16 12:00N 29°49' W 092°01'2 5.1
2018-Feb-16 11:30N 29°48' W 092°04'3 5.2
2018-Feb-16 11:00N 29°48' W 092°07'2 4.8
2018-Feb-16 10:30N 29°47' W 092°09'2 3.4
2018-Feb-16 10:00N 29°47' W 092°11'2 4.1
2018-Feb-16 09:30N 29°48' W 092°13'1 2.2
2018-Feb-16 09:00N 29°48' W 092°15'0 0.0
2018-Feb-16 08:30N 29°48' W 092°15'0 0.0
2018-Feb-16 08:00N 29°48' W 092°15'0 0.0
2018-Feb-16 07:30N 29°48' W 092°15'0 0.0
2018-Feb-16 07:00N 29°48' W 092°15'0 0.0
2018-Feb-16 06:30N 29°48' W 092°15'0 0.0
2018-Feb-16 06:00N 29°48' W 092°15'0 0.0
2018-Feb-16 05:30N 29°48' W 092°15'0 0.0
2018-Feb-16 05:00N 29°48' W 092°15'0 0.0
2018-Feb-16 04:30N 29°48' W 092°15'0 0.0
2018-Feb-16 04:00N 29°48' W 092°15'0 0.0
2018-Feb-16 03:30N 29°48' W 092°15'0 0.0
2018-Feb-16 03:00N 29°48' W 092°15'0 0.0
2018-Feb-16 02:30N 29°48' W 092°15'0 0.0
2018-Feb-16 01:59N 29°48' W 092°15'1 2.0
2018-Feb-16 01:30N 29°48' W 092°16'2 3.3
2018-Feb-16 01:00N 29°49' W 092°17'2 3.8
2018-Feb-16 00:30N 29°50' W 092°19'2 4.9
2018-Feb-16 00:00N 29°51' W 092°22'37 4.6
2018-Feb-15 15:56N 29°56' W 093°04'2 2.6
2018-Feb-15 15:09N 29°56' W 093°07'1 3.9
2018-Feb-15 14:57N 29°56' W 093°08'0 0.3
2018-Feb-15 14:26N 29°56' W 093°08'0 0.0
2018-Feb-15 13:55N 29°56' W 093°08'0 0.0
2018-Feb-15 13:29N 29°56' W 093°08'0 0.0
2018-Feb-15 13:00N 29°56' W 093°08'0 0.0
2018-Feb-15 12:20N 29°56' W 093°08'0 0.0
2018-Feb-15 11:04N 29°56' W 093°08'0 0.0
2018-Feb-15 10:48N 29°56' W 093°08'0 0.0
2018-Feb-15 10:22N 29°56' W 093°08'0 0.0
2018-Feb-15 09:47N 29°56' W 093°08'0 0.0
2018-Feb-15 09:19N 29°56' W 093°08'0 0.0
2018-Feb-15 08:49N 29°56' W 093°08'0 0.0
2018-Feb-15 08:20N 29°56' W 093°08'0 0.0
2018-Feb-15 07:52N 29°56' W 093°08'0 0.0
2018-Feb-15 05:38N 29°56' W 093°08'0 0.0
2018-Feb-15 05:11N 29°56' W 093°08'0 0.0
2018-Feb-15 04:47N 29°56' W 093°08'0 0.0
2018-Feb-15 04:24N 29°56' W 093°08'0 0.0
2018-Feb-15 03:59N 29°56' W 093°08'0 0.0
2018-Feb-15 03:25N 29°56' W 093°08'0 0.0
2018-Feb-15 02:57N 29°56' W 093°08'0 0.0
2018-Feb-15 02:22N 29°56' W 093°08'0 0.0
2018-Feb-15 01:59N 29°56' W 093°08'0 0.1
2018-Feb-15 01:30N 29°56' W 093°08'0 0.0
2018-Feb-15 01:01N 29°56' W 093°08'0 0.1
2018-Feb-15 00:27N 29°56' W 093°08'1 2.4
2018-Feb-15 00:00N 29°56' W 093°09'2 3.1
2018-Feb-14 23:30N 29°57' W 093°10'2 3.8
2018-Feb-14 23:00N 29°59' W 093°12'2 3.3
2018-Feb-14 22:31N 29°60' W 093°13'1 2.9
2018-Feb-14 22:00N 30°01' W 093°14'1 2.6
2018-Feb-14 21:30N 30°02' W 093°15'1 2.4
2018-Feb-14 21:01N 30°03' W 093°16'1 2.9
2018-Feb-14 20:30N 30°04' W 093°16'2 3.3
2018-Feb-14 20:00N 30°05' W 093°18'1 2.3
2018-Feb-14 19:30N 30°06' W 093°19'1 2.0
2018-Feb-14 19:00N 30°05' W 093°20'2 4.3
2018-Feb-14 18:30N 30°04' W 093°21'0 0.5
2018-Feb-14 18:00N 30°04' W 093°21'0 0.1
2018-Feb-14 17:30N 30°04' W 093°21'0 0.0
2018-Feb-14 17:00N 30°04' W 093°21'0 0.0
2018-Feb-14 16:30N 30°04' W 093°21'0 0.0
2018-Feb-14 16:00N 30°04' W 093°21'0 0.0
2018-Feb-14 15:30N 30°04' W 093°21'0 0.0
2018-Feb-14 15:00N 30°04' W 093°21'0 0.0
2018-Feb-14 14:30N 30°04' W 093°21'0 0.0
2018-Feb-14 14:00N 30°04' W 093°21'0 0.0
2018-Feb-14 13:30N 30°04' W 093°21'0 0.0
2018-Feb-14 13:00N 30°04' W 093°21'0 0.0
2018-Feb-14 12:30N 30°04' W 093°21'0 0.0
2018-Feb-14 12:00N 30°04' W 093°21'0 0.0
2018-Feb-14 11:30N 30°04' W 093°21'0 0.0
2018-Feb-14 11:00N 30°04' W 093°21'0 0.0
2018-Feb-14 10:30N 30°04' W 093°21'0 0.1
2018-Feb-14 10:00N 30°04' W 093°21'0 0.1
2018-Feb-14 09:30N 30°04' W 093°21'0 0.1
2018-Feb-14 09:00N 30°04' W 093°21'0 0.3
2018-Feb-14 08:30N 30°04' W 093°21'0 0.4
2018-Feb-14 07:57N 30°04' W 093°21'0 0.0
2018-Feb-14 07:30N 30°04' W 093°21'0 0.0
2018-Feb-14 07:00N 30°04' W 093°21'1 2.4
2018-Feb-14 06:30N 30°04' W 093°23'2 3.9
2018-Feb-14 06:00N 30°04' W 093°25'2 4.0
2018-Feb-14 05:30N 30°04' W 093°27'2 4.1
2018-Feb-14 05:00N 30°04' W 093°29'2 4.6
2018-Feb-14 04:30N 30°04' W 093°32'3 5.2
2018-Feb-14 03:59N 30°04' W 093°35'3 5.1
2018-Feb-14 03:30N 30°04' W 093°38'3 6.6
2018-Feb-14 03:00N 30°03' W 093°42'3 5.8
2018-Feb-14 02:30N 30°02' W 093°44'3 6.2
2018-Feb-14 02:00N 29°60' W 093°47'3 6.7
2018-Feb-14 01:30N 29°58' W 093°51'0 0.3
2018-Feb-14 01:00N 29°58' W 093°51'1 1.4
2018-Feb-14 00:30N 29°58' W 093°51'4 8.5
2018-Feb-14 00:00N 29°54' W 093°54'4 8.5
2018-Feb-13 23:30N 29°51' W 093°57'2 3.6
2018-Feb-13 23:00N 29°49' W 093°58'2 4.4
2018-Feb-13 22:30N 29°48' W 094°00'3 5.1
2018-Feb-13 22:00N 29°46' W 094°02'3 5.1
2018-Feb-13 21:30N 29°45' W 094°05'3 5.3
2018-Feb-13 21:00N 29°43' W 094°07'3 5.3
2018-Feb-13 20:30N 29°41' W 094°09'3 5.2
2018-Feb-13 20:00N 29°41' W 094°12'3 5.0
2018-Feb-13 19:30N 29°40' W 094°15'3 5.1
2018-Feb-13 19:00N 29°38' W 094°17'2 4.9
2018-Feb-13 18:30N 29°37' W 094°20'3 5.0
2018-Feb-13 17:57N 29°36' W 094°23'2 3.5
2018-Feb-13 17:26N 29°36' W 094°25'2 4.4
2018-Feb-13 17:00N 29°34' W 094°26'24 3.9
2018-Feb-13 10:44N 29°32' W 094°54'2 7.5
2018-Feb-13 10:30N 29°33' W 094°55'4 7.7
2018-Feb-13 10:00N 29°36' W 094°57'10 1.1
2018-Feb-13 00:51N 29°45' W 095°04'2 4.0
2018-Feb-13 00:23N 29°44' W 095°02'2 4.5
2018-Feb-12 23:59N 29°42' W 095°01'3 5.4
2018-Feb-12 23:30N 29°41' W 094°59'3 6.0
2018-Feb-12 23:00N 29°38' W 094°58'3 6.1
2018-Feb-12 22:30N 29°35' W 094°56'3 6.4
2018-Feb-12 22:00N 29°32' W 094°54'18 0.6
2018-Feb-11 15:58N 29°30' W 094°34'0 0.0
2018-Feb-11 15:16N 29°30' W 094°34'0 0.0
2018-Feb-11 14:58N 29°30' W 094°34'0 0.0
2018-Feb-11 14:18N 29°30' W 094°34'0 0.0
2018-Feb-11 14:00N 29°30' W 094°34'0 0.1
2018-Feb-11 13:26N 29°30' W 094°34'0 0.1
2018-Feb-11 12:53N 29°30' W 094°34'0 0.0
2018-Feb-11 11:23N 29°30' W 094°34'1 2.0
2018-Feb-11 10:45N 29°30' W 094°32'1 2.4
2018-Feb-11 10:28N 29°31' W 094°32'2 0.5
2018-Feb-11 05:56N 29°32' W 094°29'3 1.4
2018-Feb-11 03:34N 29°34' W 094°26'0 4.4
2018-Feb-11 03:30N 29°34' W 094°26'2 3.2
2018-Feb-11 02:54N 29°36' W 094°25'1 3.6
2018-Feb-11 02:31N 29°36' W 094°23'1 1.9
2018-Feb-11 02:00N 29°36' W 094°22'0 0.0
2018-Feb-11 01:30N 29°36' W 094°22'0 0.0
2018-Feb-10 23:47N 29°36' W 094°22'1 0.7
2018-Feb-10 21:44N 29°37' W 094°21'0 0.0
2018-Feb-10 21:30N 29°37' W 094°21'0 0.0
2018-Feb-10 20:48N 29°37' W 094°21'0 1.7
2018-Feb-10 20:31N 29°37' W 094°20'2 4.1
2018-Feb-10 20:00N 29°38' W 094°18'2 3.7
2018-Feb-10 19:30N 29°39' W 094°16'2 4.5
2018-Feb-10 19:00N 29°40' W 094°14'2 3.7
2018-Feb-10 18:30N 29°41' W 094°12'2 4.5
2018-Feb-10 18:00N 29°41' W 094°10'2 4.5
2018-Feb-10 17:31N 29°43' W 094°08'2 4.7
2018-Feb-10 17:00N 29°44' W 094°05'2 3.1
2018-Feb-10 16:30N 29°45' W 094°04'0 0.2
2018-Feb-10 16:00N 29°45' W 094°04'2 4.2
2018-Feb-10 15:31N 29°47' W 094°02'2 4.5
2018-Feb-10 15:00N 29°48' W 094°00'2 3.3
2018-Feb-10 14:30N 29°49' W 093°59'0 0.1
2018-Feb-10 14:00N 29°49' W 093°59'0 0.0
2018-Feb-10 13:30N 29°49' W 093°59'0 0.4
2018-Feb-10 13:00N 29°49' W 093°59'0 0.2
2018-Feb-10 12:29N 29°49' W 093°59'0 0.0
2018-Feb-10 12:00N 29°49' W 093°59'0 0.0
2018-Feb-10 11:30N 29°49' W 093°59'0 0.0
2018-Feb-10 11:00N 29°49' W 093°59'  
Track history (hours):
 
Tides and Currents Weather Stations Pressure Air Temp Water Temp Dewpoint Dewpoint Depression Visibility Wind Speed Wind Dir Waves Ship Positions

Mac Andrew Mckinney

Owner: McKinney Marine, Inc, Baton Rouge, LA. More information available from US FCC via Universal Licensing System and Coast Guard Vessel Documentation Center.

Last reported at 2018-Feb-20 10:59 UTC. Time now 2018-Feb-20 11:19 UTC.
Position N 30°04' W 093°33'.

Length 21 m; draft 3 m.

Type: Tug. MMSI: 367500460.

Date/timePositionNaut miles runAvg speedWind from/ knotsBaromVisibWave heightAir tempDewpointWater temp
2018-Feb-20 10:59N 30°04' W 093°33'2 5.2
2018-Feb-20 10:30N 30°04' W 093°30'2 4.9
2018-Feb-20 10:00N 30°04' W 093°28'2 4.9
2018-Feb-20 09:30N 30°04' W 093°25'2 4.6
2018-Feb-20 09:00N 30°04' W 093°22'2 3.2
2018-Feb-20 08:30N 30°04' W 093°20'2 3.6
2018-Feb-20 07:50N 30°06' W 093°18'1 4.1
2018-Feb-20 07:30N 30°05' W 093°17'1 1.9
2018-Feb-20 07:00N 30°04' W 093°16'2 3.1
2018-Feb-20 06:30N 30°03' W 093°16'2 4.8
2018-Feb-20 06:00N 30°01' W 093°14'2 3.7
2018-Feb-20 05:30N 29°60' W 093°13'3 5.1
2018-Feb-20 05:00N 29°58' W 093°11'2 4.9
2018-Feb-20 04:30N 29°56' W 093°09'3 5.2
2018-Feb-20 04:00N 29°56' W 093°06'3 5.1
2018-Feb-20 03:30N 29°56' W 093°03'36 4.8
2018-Feb-19 19:52N 29°51' W 092°21'2 5.0
2018-Feb-19 19:29N 29°50' W 092°19'2 4.6
2018-Feb-19 19:00N 29°49' W 092°17'3 5.3
2018-Feb-19 18:30N 29°48' W 092°15'2 4.1
2018-Feb-19 17:59N 29°47' W 092°12'2 3.7
2018-Feb-19 17:30N 29°47' W 092°10'2 4.9
2018-Feb-19 17:00N 29°47' W 092°08'3 5.2
2018-Feb-19 16:30N 29°48' W 092°05'2 4.9
2018-Feb-19 16:00N 29°49' W 092°02'3 5.1
2018-Feb-19 15:30N 29°50' W 091°60'  
2018-Feb-16 12:22N 29°50' W 091°59'2 4.4
2018-Feb-16 12:00N 29°49' W 092°01'2 5.1
2018-Feb-16 11:30N 29°48' W 092°04'3 5.2
2018-Feb-16 11:00N 29°48' W 092°07'2 4.8
2018-Feb-16 10:30N 29°47' W 092°09'2 3.4
2018-Feb-16 10:00N 29°47' W 092°11'2 4.1
2018-Feb-16 09:30N 29°48' W 092°13'1 2.2
2018-Feb-16 09:00N 29°48' W 092°15'0 0.0
2018-Feb-16 08:30N 29°48' W 092°15'0 0.0
2018-Feb-16 08:00N 29°48' W 092°15'0 0.0
2018-Feb-16 07:30N 29°48' W 092°15'0 0.0
2018-Feb-16 07:00N 29°48' W 092°15'0 0.0
2018-Feb-16 06:30N 29°48' W 092°15'0 0.0
2018-Feb-16 06:00N 29°48' W 092°15'0 0.0
2018-Feb-16 05:30N 29°48' W 092°15'0 0.0
2018-Feb-16 05:00N 29°48' W 092°15'0 0.0
2018-Feb-16 04:30N 29°48' W 092°15'0 0.0
2018-Feb-16 04:00N 29°48' W 092°15'0 0.0
2018-Feb-16 03:30N 29°48' W 092°15'0 0.0
2018-Feb-16 03:00N 29°48' W 092°15'0 0.0
2018-Feb-16 02:30N 29°48' W 092°15'0 0.0
2018-Feb-16 01:59N 29°48' W 092°15'1 2.0
2018-Feb-16 01:30N 29°48' W 092°16'2 3.3
2018-Feb-16 01:00N 29°49' W 092°17'2 3.8
2018-Feb-16 00:30N 29°50' W 092°19'2 4.9
2018-Feb-16 00:00N 29°51' W 092°22'37 4.6
2018-Feb-15 15:56N 29°56' W 093°04'2 2.6
2018-Feb-15 15:09N 29°56' W 093°07'1 3.9
2018-Feb-15 14:57N 29°56' W 093°08'0 0.3
2018-Feb-15 14:26N 29°56' W 093°08'0 0.0
2018-Feb-15 13:55N 29°56' W 093°08'0 0.0
2018-Feb-15 13:29N 29°56' W 093°08'0 0.0
2018-Feb-15 13:00N 29°56' W 093°08'0 0.0
2018-Feb-15 12:20N 29°56' W 093°08'0 0.0
2018-Feb-15 11:04N 29°56' W 093°08'0 0.0
2018-Feb-15 10:48N 29°56' W 093°08'0 0.0
2018-Feb-15 10:22N 29°56' W 093°08'0 0.0
2018-Feb-15 09:47N 29°56' W 093°08'0 0.0
2018-Feb-15 09:19N 29°56' W 093°08'0 0.0
2018-Feb-15 08:49N 29°56' W 093°08'0 0.0
2018-Feb-15 08:20N 29°56' W 093°08'0 0.0
2018-Feb-15 07:52N 29°56' W 093°08'0 0.0
2018-Feb-15 05:38N 29°56' W 093°08'0 0.0
2018-Feb-15 05:11N 29°56' W 093°08'0 0.0
2018-Feb-15 04:47N 29°56' W 093°08'0 0.0
2018-Feb-15 04:24N 29°56' W 093°08'0 0.0
2018-Feb-15 03:59N 29°56' W 093°08'0 0.0
2018-Feb-15 03:25N 29°56' W 093°08'0 0.0
2018-Feb-15 02:57N 29°56' W 093°08'0 0.0
2018-Feb-15 02:22N 29°56' W 093°08'0 0.0
2018-Feb-15 01:59N 29°56' W 093°08'0 0.1
2018-Feb-15 01:30N 29°56' W 093°08'0 0.0
2018-Feb-15 01:01N 29°56' W 093°08'0 0.1
2018-Feb-15 00:27N 29°56' W 093°08'1 2.4
2018-Feb-15 00:00N 29°56' W 093°09'2 3.1
2018-Feb-14 23:30N 29°57' W 093°10'2 3.8
2018-Feb-14 23:00N 29°59' W 093°12'2 3.3
2018-Feb-14 22:31N 29°60' W 093°13'1 2.9
2018-Feb-14 22:00N 30°01' W 093°14'1 2.6
2018-Feb-14 21:30N 30°02' W 093°15'1 2.4
2018-Feb-14 21:01N 30°03' W 093°16'1 2.9
2018-Feb-14 20:30N 30°04' W 093°16'2 3.3
2018-Feb-14 20:00N 30°05' W 093°18'1 2.3
2018-Feb-14 19:30N 30°06' W 093°19'1 2.0
2018-Feb-14 19:00N 30°05' W 093°20'2 4.3
2018-Feb-14 18:30N 30°04' W 093°21'0 0.5
2018-Feb-14 18:00N 30°04' W 093°21'0 0.1
2018-Feb-14 17:30N 30°04' W 093°21'0 0.0
2018-Feb-14 17:00N 30°04' W 093°21'0 0.0
2018-Feb-14 16:30N 30°04' W 093°21'0 0.0
2018-Feb-14 16:00N 30°04' W 093°21'0 0.0
2018-Feb-14 15:30N 30°04' W 093°21'0 0.0
2018-Feb-14 15:00N 30°04' W 093°21'0 0.0
2018-Feb-14 14:30N 30°04' W 093°21'0 0.0
2018-Feb-14 14:00N 30°04' W 093°21'0 0.0
2018-Feb-14 13:30N 30°04' W 093°21'0 0.0
2018-Feb-14 13:00N 30°04' W 093°21'0 0.0
2018-Feb-14 12:30N 30°04' W 093°21'0 0.0
2018-Feb-14 12:00N 30°04' W 093°21'0 0.0
2018-Feb-14 11:30N 30°04' W 093°21'0 0.0
2018-Feb-14 11:00N 30°04' W 093°21'0 0.0
2018-Feb-14 10:30N 30°04' W 093°21'0 0.1
2018-Feb-14 10:00N 30°04' W 093°21'0 0.1
2018-Feb-14 09:30N 30°04' W 093°21'0 0.1
2018-Feb-14 09:00N 30°04' W 093°21'0 0.3
2018-Feb-14 08:30N 30°04' W 093°21'0 0.4
2018-Feb-14 07:57N 30°04' W 093°21'0 0.0
2018-Feb-14 07:30N 30°04' W 093°21'0 0.0
2018-Feb-14 07:00N 30°04' W 093°21'1 2.4
2018-Feb-14 06:30N 30°04' W 093°23'2 3.9
2018-Feb-14 06:00N 30°04' W 093°25'2 4.0
2018-Feb-14 05:30N 30°04' W 093°27'2 4.1
2018-Feb-14 05:00N 30°04' W 093°29'2 4.6
2018-Feb-14 04:30N 30°04' W 093°32'3 5.2
2018-Feb-14 03:59N 30°04' W 093°35'3 5.1
2018-Feb-14 03:30N 30°04' W 093°38'3 6.6
2018-Feb-14 03:00N 30°03' W 093°42'3 5.8
2018-Feb-14 02:30N 30°02' W 093°44'3 6.2
2018-Feb-14 02:00N 29°60' W 093°47'3 6.7
2018-Feb-14 01:30N 29°58' W 093°51'0 0.3
2018-Feb-14 01:00N 29°58' W 093°51'1 1.4
2018-Feb-14 00:30N 29°58' W 093°51'4 8.5
2018-Feb-14 00:00N 29°54' W 093°54'4 8.5
2018-Feb-13 23:30N 29°51' W 093°57'2 3.6
2018-Feb-13 23:00N 29°49' W 093°58'2 4.4
2018-Feb-13 22:30N 29°48' W 094°00'3 5.1
2018-Feb-13 22:00N 29°46' W 094°02'3 5.1
2018-Feb-13 21:30N 29°45' W 094°05'3 5.3
2018-Feb-13 21:00N 29°43' W 094°07'3 5.3
2018-Feb-13 20:30N 29°41' W 094°09'3 5.2
2018-Feb-13 20:00N 29°41' W 094°12'3 5.0
2018-Feb-13 19:30N 29°40' W 094°15'3 5.1
2018-Feb-13 19:00N 29°38' W 094°17'2 4.9
2018-Feb-13 18:30N 29°37' W 094°20'3 5.0
2018-Feb-13 17:57N 29°36' W 094°23'2 3.5
2018-Feb-13 17:26N 29°36' W 094°25'2 4.4
2018-Feb-13 17:00N 29°34' W 094°26'24 3.9
2018-Feb-13 10:44N 29°32' W 094°54'2 7.5
2018-Feb-13 10:30N 29°33' W 094°55'4 7.7
2018-Feb-13 10:00N 29°36' W 094°57'10 1.1
2018-Feb-13 00:51N 29°45' W 095°04'2 4.0
2018-Feb-13 00:23N 29°44' W 095°02'2 4.5
2018-Feb-12 23:59N 29°42' W 095°01'3 5.4
2018-Feb-12 23:30N 29°41' W 094°59'3 6.0
2018-Feb-12 23:00N 29°38' W 094°58'3 6.1
2018-Feb-12 22:30N 29°35' W 094°56'3 6.4
2018-Feb-12 22:00N 29°32' W 094°54'18 0.6
2018-Feb-11 15:58N 29°30' W 094°34'0 0.0
2018-Feb-11 15:16N 29°30' W 094°34'0 0.0
2018-Feb-11 14:58N 29°30' W 094°34'0 0.0
2018-Feb-11 14:18N 29°30' W 094°34'0 0.0
2018-Feb-11 14:00N 29°30' W 094°34'0 0.1
2018-Feb-11 13:26N 29°30' W 094°34'0 0.1
2018-Feb-11 12:53N 29°30' W 094°34'0 0.0
2018-Feb-11 11:23N 29°30' W 094°34'1 2.0
2018-Feb-11 10:45N 29°30' W 094°32'1 2.4
2018-Feb-11 10:28N 29°31' W 094°32'2 0.5
2018-Feb-11 05:56N 29°32' W 094°29'3 1.4
2018-Feb-11 03:34N 29°34' W 094°26'0 4.4
2018-Feb-11 03:30N 29°34' W 094°26'2 3.2
2018-Feb-11 02:54N 29°36' W 094°25'1 3.6
2018-Feb-11 02:31N 29°36' W 094°23'1 1.9
2018-Feb-11 02:00N 29°36' W 094°22'0 0.0
2018-Feb-11 01:30N 29°36' W 094°22'0 0.0
2018-Feb-10 23:47N 29°36' W 094°22'1 0.7
2018-Feb-10 21:44N 29°37' W 094°21'0 0.0
2018-Feb-10 21:30N 29°37' W 094°21'0 0.0
2018-Feb-10 20:48N 29°37' W 094°21'0 1.7
2018-Feb-10 20:31N 29°37' W 094°20'2 4.1
2018-Feb-10 20:00N 29°38' W 094°18'2 3.7
2018-Feb-10 19:30N 29°39' W 094°16'2 4.5
2018-Feb-10 19:00N 29°40' W 094°14'2 3.7
2018-Feb-10 18:30N 29°41' W 094°12'2 4.5
2018-Feb-10 18:00N 29°41' W 094°10'2 4.5
2018-Feb-10 17:31N 29°43' W 094°08'2 4.7
2018-Feb-10 17:00N 29°44' W 094°05'2 3.1
2018-Feb-10 16:30N 29°45' W 094°04'0 0.2
2018-Feb-10 16:00N 29°45' W 094°04'2 4.2
2018-Feb-10 15:31N 29°47' W 094°02'2 4.5
2018-Feb-10 15:00N 29°48' W 094°00'2 3.3
2018-Feb-10 14:30N 29°49' W 093°59'0 0.1
2018-Feb-10 14:00N 29°49' W 093°59'0 0.0
2018-Feb-10 13:30N 29°49' W 093°59'0 0.4
2018-Feb-10 13:00N 29°49' W 093°59'0 0.2
2018-Feb-10 12:29N 29°49' W 093°59'0 0.0
2018-Feb-10 12:00N 29°49' W 093°59'0 0.0
2018-Feb-10 11:30N 29°49' W 093°59'0 0.0
2018-Feb-10 11:00N 29°49' W 093°59'  

Dump ship's entire track history